Terminal Aerodrome Forecast
Issued by NWS

Home | Current Version | Previous Version | Text Only | Print | Product List | Glossary On
Versions: 1 2 3 4 5 6 7 8 9 10 11 12 13 14 15
000
FTUS45 KTFX 212300
TAFGTF
TAF
KGTF 212328Z 2200/2224 24015KT 4SM -RA BR SCT009 OVC035
     FM220030 23010KT P6SM -SHRA SCT009 OVC040
     FM220300 22012KT P6SM SCT060 BKN120
     FM220900 21012KT P6SM SKC=

USA.gov is the U.S. government's official web portal to all federal, state and local government web resources and services.